Time;durP1;ratioP1;P1;durP2;ratioP2;P2;SDS_P1;SDS_P2;PMS_P1;PMS_P2;Temp;Humidity;BMP_temperature;BMP_pressure;BME280_temperature;BME280_humidity;BME280_pressure;Samples;Min_cycle;Max_cycle;Signal;HPM_P1;HPM_P2
2023/03/12 00:00:03;;;;;;;7.30;5.10;;;5.20;73.60;;;;;;5115811;28;20482;-58
2023/03/12 00:02:30;;;;;;;6.83;4.20;;;5.20;74.20;;;;;;5116086;28;20506;-57
2023/03/12 00:04:56;;;;;;;9.53;5.43;;;5.20;74.10;;;;;;5116444;28;20446;-57
2023/03/12 00:07:23;;;;;;;9.97;5.13;;;5.20;75.70;;;;;;5116304;28;20495;-58
2023/03/12 00:09:50;;;;;;;8.90;4.57;;;5.20;75.30;;;;;;5115898;28;20451;-57
2023/03/12 00:12:18;;;;;;;13.80;5.40;;;5.20;76.30;;;;;;5116103;28;20474;-58
2023/03/12 00:14:44;;;;;;;6.77;4.53;;;5.20;76.40;;;;;;5115462;28;20443;-58
2023/03/12 00:17:11;;;;;;;15.43;4.57;;;5.10;77.80;;;;;;5115560;28;20480;-58
2023/03/12 00:19:38;;;;;;;8.23;4.60;;;5.20;76.50;;;;;;5115083;28;20991;-58
2023/03/12 00:22:04;;;;;;;10.83;4.07;;;5.20;74.60;;;;;;5115328;28;20459;-58
2023/03/12 00:24:31;;;;;;;4.67;4.00;;;5.20;74.00;;;;;;5115279;28;20447;-58
2023/03/12 00:26:58;;;;;;;9.10;3.90;;;5.30;73.70;;;;;;5114873;28;20956;-58
2023/03/12 00:29:26;;;;;;;6.47;4.17;;;5.30;73.20;;;;;;5114879;28;20849;-58
2023/03/12 00:31:53;;;;;;;9.43;5.27;;;5.30;73.60;;;;;;5115115;28;20471;-58
2023/03/12 00:34:19;;;;;;;5.23;2.90;;;5.40;73.20;;;;;;5115137;28;20478;-58
2023/03/12 00:36:46;;;;;;;6.60;3.70;;;5.40;73.50;;;;;;5114942;28;20446;-57
2023/03/12 00:39:13;;;;;;;4.40;3.30;;;5.40;74.00;;;;;;5114597;28;20482;-57
2023/03/12 00:41:39;;;;;;;7.40;3.83;;;5.40;75.60;;;;;;5114850;28;20521;-58
2023/03/12 00:44:06;;;;;;;10.43;3.67;;;5.40;75.80;;;;;;5114975;28;20455;-58
2023/03/12 00:46:34;;;;;;;8.60;4.03;;;5.40;77.20;;;;;;5114970;28;20797;-58
2023/03/12 00:49:01;;;;;;;6.47;4.10;;;5.40;78.00;;;;;;5114508;28;20964;-58
2023/03/12 00:51:27;;;;;;;7.90;3.90;;;5.50;78.60;;;;;;5114641;28;20469;-57
2023/03/12 00:53:55;;;;;;;5.07;4.00;;;5.50;77.70;;;;;;5114588;28;20523;-57
2023/03/12 00:56:22;;;;;;;6.07;4.80;;;5.60;78.10;;;;;;5114709;28;20474;-58
2023/03/12 00:58:48;;;;;;;12.97;5.67;;;5.60;78.10;;;;;;5114194;28;20482;-58
2023/03/12 01:01:15;;;;;;;9.30;4.77;;;5.60;77.20;;;;;;5114524;28;20443;-58
2023/03/12 01:03:43;;;;;;;8.10;4.83;;;5.60;76.90;;;;;;5114420;28;20474;-58
2023/03/12 01:06:10;;;;;;;6.33;3.50;;;5.60;76.00;;;;;;5114491;28;20447;-58
2023/03/12 01:08:37;;;;;;;5.77;3.20;;;5.60;75.20;;;;;;5114458;28;20446;-58
2023/03/12 01:11:04;;;;;;;6.60;4.10;;;5.50;73.80;;;;;;5115303;28;20461;-58
2023/03/12 01:13:31;;;;;;;6.17;3.80;;;5.50;76.10;;;;;;5114001;28;20816;-58
2023/03/12 01:15:58;;;;;;;6.70;3.50;;;5.50;77.70;;;;;;5114290;28;20455;-58
2023/03/12 01:18:24;;;;;;;6.43;3.80;;;5.40;74.80;;;;;;5114074;28;20479;-58
2023/03/12 01:20:53;;;;;;;7.87;3.50;;;5.40;76.10;;;;;;5114680;28;20453;-58
2023/03/12 01:23:20;;;;;;;5.13;3.50;;;5.40;74.80;;;;;;5114147;28;20512;-58
2023/03/12 01:25:47;;;;;;;7.40;4.13;;;5.30;75.10;;;;;;5113674;28;20446;-58
2023/03/12 01:28:13;;;;;;;5.20;3.40;;;5.30;76.20;;;;;;5113992;28;20537;-58
2023/03/12 01:30:40;;;;;;;6.23;3.70;;;5.20;77.40;;;;;;5114149;28;20487;-58
2023/03/12 01:33:07;;;;;;;5.50;3.63;;;5.20;76.80;;;;;;5113991;28;20467;-58
2023/03/12 01:35:36;;;;;;;9.13;3.87;;;5.20;78.00;;;;;;5114062;28;20450;-58
2023/03/12 01:38:04;;;;;;;5.10;4.37;;;5.10;77.30;;;;;;5113699;28;20462;-58
2023/03/12 01:40:33;;;;;;;4.90;3.77;;;5.10;78.50;;;;;;5113893;28;20486;-58
2023/03/12 01:43:22;;;;;;;8.93;3.50;;;5.00;80.80;;;;;;5113883;28;20921;-58
2023/03/12 01:46:22;;;;;;;6.60;3.33;;;5.10;80.20;;;;;;5113967;28;20427;-58
2023/03/12 01:48:53;;;;;;;5.50;3.80;;;5.10;79.30;;;;;;5111632;28;20447;-58
2023/03/12 01:51:21;;;;;;;4.67;3.80;;;5.00;79.60;;;;;;5113937;28;20423;-57
2023/03/12 01:53:53;;;;;;;6.77;4.27;;;5.10;80.90;;;;;;5113793;28;20531;-58
2023/03/12 01:56:21;;;;;;;8.77;5.03;;;5.10;80.60;;;;;;5114013;28;20466;-58
2023/03/12 01:58:50;;;;;;;6.43;4.47;;;5.10;81.00;;;;;;5113729;28;20869;-58
2023/03/12 02:01:19;;;;;;;4.70;4.00;;;5.10;81.80;;;;;;5113684;28;20446;-58
2023/03/12 02:03:47;;;;;;;7.67;4.40;;;5.20;81.70;;;;;;5113735;28;20462;-58
2023/03/12 02:06:15;;;;;;;7.00;4.40;;;5.20;81.40;;;;;;5113811;28;20455;-57
2023/03/12 02:08:45;;;;;;;11.33;6.30;;;5.20;81.30;;;;;;5113618;28;20443;-58
2023/03/12 02:11:13;;;;;;;7.53;4.33;;;5.20;81.50;;;;;;5113674;28;20503;-58
2023/03/12 02:13:40;;;;;;;9.60;3.97;;;5.30;82.20;;;;;;5113535;28;20462;-58
2023/03/12 02:16:08;;;;;;;6.60;4.23;;;5.40;82.60;;;;;;5113644;28;20862;-58
2023/03/12 02:18:35;;;;;;;6.90;4.27;;;5.40;83.10;;;;;;5113289;28;20950;-58
2023/03/12 02:21:10;;;;;;;10.40;3.60;;;5.50;83.10;;;;;;5113608;28;20450;-58
2023/03/12 02:23:44;;;;;;;7.13;4.07;;;5.50;82.40;;;;;;5113353;28;20462;-58
2023/03/12 02:26:13;;;;;;;9.97;3.63;;;5.50;82.70;;;;;;5113407;28;20904;-58
2023/03/12 02:28:42;;;;;;;6.30;4.10;;;5.60;83.50;;;;;;5113676;28;20446;-58
2023/03/12 02:31:13;;;;;;;6.63;4.90;;;5.60;84.20;;;;;;5113839;28;20478;-58
2023/03/12 02:33:39;;;;;;;8.30;4.73;;;5.60;84.80;;;;;;5113802;28;20470;-57
2023/03/12 02:36:06;;;;;;;5.80;4.10;;;5.70;85.30;;;;;;5113596;28;20959;-58
2023/03/12 02:38:37;;;;;;;5.43;3.80;;;5.70;85.70;;;;;;5116342;28;20455;-58
2023/03/12 02:41:07;;;;;;;7.57;5.00;;;5.70;86.00;;;;;;5117505;28;20923;-58
2023/03/12 02:43:35;;;;;;;6.30;5.23;;;5.80;86.70;;;;;;5117661;28;20477;-58
2023/03/12 02:46:01;;;;;;;8.57;5.20;;;5.80;87.20;;;;;;5117638;28;20439;-58
2023/03/12 02:48:28;;;;;;;7.07;5.10;;;5.80;87.70;;;;;;5117521;28;20439;-58
2023/03/12 02:50:55;;;;;;;5.23;4.37;;;5.80;88.10;;;;;;5118587;28;20915;-58
2023/03/12 02:53:22;;;;;;;6.87;4.60;;;5.80;88.40;;;;;;5117700;28;20470;-57
2023/03/12 02:55:48;;;;;;;8.20;6.37;;;5.70;88.60;;;;;;5118628;28;20438;-58
2023/03/12 02:58:15;;;;;;;7.43;5.90;;;5.80;89.10;;;;;;5120125;28;20438;-58
2023/03/12 03:00:43;;;;;;;10.10;5.80;;;5.80;89.70;;;;;;5119570;28;20894;-58
2023/03/12 03:03:09;;;;;;;6.10;5.27;;;5.70;89.60;;;;;;5118590;28;20469;-58
2023/03/12 03:05:37;;;;;;;10.03;5.90;;;5.70;89.90;;;;;;5117507;28;20450;-58
2023/03/12 03:08:04;;;;;;;8.63;5.63;;;5.80;90.10;;;;;;5117299;28;20471;-58
2023/03/12 03:10:31;;;;;;;8.63;5.57;;;5.80;90.20;;;;;;5117033;28;20442;-58
2023/03/12 03:12:57;;;;;;;10.30;5.60;;;5.80;90.20;;;;;;5116609;28;20467;-58
2023/03/12 03:15:24;;;;;;;7.53;5.30;;;5.80;90.10;;;;;;5116667;28;20476;-58
2023/03/12 03:17:52;;;;;;;5.70;5.10;;;5.80;90.00;;;;;;5116555;28;20446;-58
2023/03/12 03:20:20;;;;;;;10.80;5.77;;;5.80;90.10;;;;;;5117679;28;20485;-58
2023/03/12 03:22:47;;;;;;;8.93;5.87;;;5.80;90.10;;;;;;5116450;28;20478;-58
2023/03/12 03:25:14;;;;;;;10.00;5.93;;;5.80;90.20;;;;;;5116176;28;20472;-58
2023/03/12 03:27:41;;;;;;;10.07;5.90;;;5.80;90.30;;;;;;5116415;28;20455;-58
2023/03/12 03:30:10;;;;;;;14.03;6.00;;;5.80;90.20;;;;;;5116384;28;20438;-58
2023/03/12 03:32:38;;;;;;;9.30;6.43;;;5.80;90.20;;;;;;5115961;28;20980;-58
2023/03/12 03:35:07;;;;;;;9.17;5.90;;;5.80;90.30;;;;;;5116259;28;20450;-58
2023/03/12 03:37:34;;;;;;;10.70;6.37;;;5.80;90.40;;;;;;5115733;28;21031;-58
2023/03/12 03:40:00;;;;;;;8.20;5.83;;;5.80;90.40;;;;;;5116316;28;20842;-58
2023/03/12 03:42:27;;;;;;;8.03;5.43;;;5.90;90.40;;;;;;5116193;28;20471;-58
2023/03/12 03:44:54;;;;;;;8.30;5.43;;;5.80;90.40;;;;;;5116008;28;20449;-58
2023/03/12 03:47:21;;;;;;;7.27;5.80;;;5.90;90.50;;;;;;5115989;28;20458;-58
2023/03/12 03:49:48;;;;;;;10.47;6.23;;;5.90;90.50;;;;;;5115468;28;20495;-58
2023/03/12 03:52:16;;;;;;;6.37;5.40;;;5.90;90.70;;;;;;5115864;28;20471;-57
2023/03/12 03:54:43;;;;;;;10.20;5.53;;;5.90;90.90;;;;;;5115875;28;20477;-58
2023/03/12 03:57:09;;;;;;;10.20;5.67;;;5.90;90.70;;;;;;5115923;28;20450;-58
2023/03/12 03:59:36;;;;;;;11.03;5.30;;;5.90;90.70;;;;;;5115667;28;20487;-58
2023/03/12 04:02:03;;;;;;;5.70;4.70;;;5.90;90.70;;;;;;5115677;28;20512;-58
2023/03/12 04:04:30;;;;;;;5.73;5.00;;;5.90;90.70;;;;;;5115824;28;20443;-58
2023/03/12 04:06:57;;;;;;;6.83;4.93;;;5.90;90.70;;;;;;5115691;28;20815;-58
2023/03/12 04:09:25;;;;;;;6.37;4.67;;;5.90;90.40;;;;;;5115569;28;20443;-58
2023/03/12 04:11:51;;;;;;;4.83;3.97;;;5.90;90.20;;;;;;5115474;28;20814;-58
2023/03/12 04:14:18;;;;;;;9.93;4.23;;;5.90;89.80;;;;;;5115457;28;20446;-58
2023/03/12 04:16:45;;;;;;;7.83;4.73;;;5.80;89.30;;;;;;5115433;28;20453;-58
2023/03/12 04:19:11;;;;;;;7.60;5.17;;;5.80;89.30;;;;;;5115268;28;20451;-58
2023/03/12 04:21:39;;;;;;;7.80;4.60;;;5.80;88.70;;;;;;5115179;28;20458;-58
2023/03/12 04:24:06;;;;;;;5.03;4.00;;;5.80;88.80;;;;;;5115252;28;20470;-58
2023/03/12 04:26:34;;;;;;;6.87;3.40;;;5.80;89.40;;;;;;5115244;28;20450;-58
2023/03/12 04:29:01;;;;;;;7.33;4.20;;;5.80;89.40;;;;;;5115624;28;20928;-58
2023/03/12 04:31:28;;;;;;;6.20;3.53;;;5.80;89.40;;;;;;5114858;28;20932;-58
2023/03/12 04:33:54;;;;;;;4.10;3.60;;;5.80;89.50;;;;;;5114987;28;20465;-58
2023/03/12 04:36:22;;;;;;;5.80;3.10;;;5.80;89.20;;;;;;5114716;28;20447;-57
2023/03/12 04:38:48;;;;;;;6.70;3.83;;;5.80;88.90;;;;;;5114752;28;20841;-57
2023/03/12 04:41:16;;;;;;;4.93;3.37;;;5.70;88.70;;;;;;5114608;28;21003;-57
2023/03/12 04:43:44;;;;;;;5.20;3.17;;;5.70;88.20;;;;;;5114589;28;20817;-58
2023/03/12 04:46:11;;;;;;;4.47;3.20;;;5.70;88.10;;;;;;5114786;28;20458;-57
2023/03/12 04:48:38;;;;;;;3.03;2.63;;;5.60;88.70;;;;;;5114784;28;20454;-58
2023/03/12 04:51:05;;;;;;;7.27;2.70;;;5.50;89.70;;;;;;5114489;28;20940;-58
2023/03/12 04:53:32;;;;;;;7.77;2.77;;;5.50;90.20;;;;;;5114587;28;20524;-58
2023/03/12 04:55:59;;;;;;;3.40;3.10;;;5.40;90.50;;;;;;5114664;28;20447;-58
2023/03/12 04:58:25;;;;;;;6.30;3.03;;;5.40;90.80;;;;;;5114612;28;20439;-58
2023/03/12 05:00:53;;;;;;;5.67;3.20;;;5.40;91.20;;;;;;5113381;28;20470;-58
2023/03/12 05:03:20;;;;;;;4.40;2.90;;;5.40;91.60;;;;;;5114456;28;21013;-58
2023/03/12 05:05:47;;;;;;;5.87;3.03;;;5.40;91.70;;;;;;5114419;28;20538;-57
2023/03/12 05:08:14;;;;;;;4.33;3.00;;;5.40;91.70;;;;;;5114349;28;20491;-57
2023/03/12 05:10:44;;;;;;;6.27;3.07;;;5.40;92.20;;;;;;5114380;28;20810;-58
2023/03/12 05:13:14;;;;;;;6.00;3.20;;;5.40;92.40;;;;;;5113987;28;21038;-58
2023/03/12 05:15:41;;;;;;;5.80;2.70;;;5.30;92.60;;;;;;5114323;28;20459;-58
2023/03/12 05:18:09;;;;;;;3.97;2.33;;;5.30;92.90;;;;;;5114166;28;20458;-58
2023/03/12 05:20:36;;;;;;;4.70;2.60;;;5.30;93.50;;;;;;5114278;28;20479;-58
2023/03/12 05:23:03;;;;;;;4.97;3.07;;;5.20;94.00;;;;;;5114114;28;20478;-58
2023/03/12 05:25:29;;;;;;;3.30;2.77;;;5.20;94.50;;;;;;5114157;28;20446;-58
2023/03/12 05:27:56;;;;;;;4.27;3.20;;;5.10;95.00;;;;;;5113849;28;20958;-58
2023/03/12 05:30:23;;;;;;;4.70;2.60;;;5.10;95.40;;;;;;5114047;28;20500;-58
2023/03/12 05:32:50;;;;;;;4.93;2.50;;;5.20;95.90;;;;;;5114003;28;20470;-58
2023/03/12 05:35:18;;;;;;;5.53;3.20;;;5.10;96.40;;;;;;5113983;28;20451;-58
2023/03/12 05:37:44;;;;;;;4.63;2.57;;;5.10;96.90;;;;;;5113837;28;20479;-58
2023/03/12 05:40:12;;;;;;;8.27;3.10;;;5.00;97.60;;;;;;5113876;28;20462;-57
2023/03/12 05:42:39;;;;;;;6.63;3.37;;;4.90;98.90;;;;;;5113872;28;20516;-57
2023/03/12 05:45:07;;;;;;;5.97;3.70;;;4.80;99.60;;;;;;5113983;28;20457;-57
2023/03/12 05:47:34;;;;;;;9.37;4.10;;;4.80;99.90;;;;;;5113995;28;20482;-57
2023/03/12 05:50:00;;;;;;;9.70;4.17;;;4.80;99.90;;;;;;5114614;28;20442;-57
2023/03/12 05:52:28;;;;;;;9.20;3.60;;;4.80;99.90;;;;;;5115820;28;20463;-57
2023/03/12 05:54:55;;;;;;;7.37;3.73;;;4.80;99.90;;;;;;5114527;28;20446;-57
2023/03/12 05:57:22;;;;;;;4.37;3.50;;;4.70;99.90;;;;;;5114155;28;20451;-57
2023/03/12 05:59:48;;;;;;;9.90;3.70;;;4.70;99.90;;;;;;5113896;28;20443;-57
2023/03/12 06:02:15;;;;;;;7.07;3.20;;;4.60;99.90;;;;;;5113703;28;20466;-57
2023/03/12 06:04:42;;;;;;;9.80;3.40;;;4.60;99.90;;;;;;5113850;28;20932;-57
2023/03/12 06:07:08;;;;;;;6.27;3.47;;;4.50;99.90;;;;;;5113959;28;20450;-57
2023/03/12 06:09:37;;;;;;;8.13;4.17;;;4.50;99.90;;;;;;5113445;28;20944;-57
2023/03/12 06:12:04;;;;;;;11.40;3.87;;;4.50;99.90;;;;;;5115975;28;20462;-57
2023/03/12 06:14:30;;;;;;;8.67;4.27;;;4.50;99.90;;;;;;5117868;28;20788;-57
2023/03/12 06:16:57;;;;;;;7.77;4.27;;;4.60;99.90;;;;;;5117802;28;20470;-57
2023/03/12 06:19:24;;;;;;;8.40;4.20;;;4.50;99.90;;;;;;5117789;28;20459;-57
2023/03/12 06:21:50;;;;;;;9.30;4.53;;;4.50;99.90;;;;;;5117522;28;20478;-57
2023/03/12 06:24:17;;;;;;;9.20;3.43;;;4.60;99.90;;;;;;5117625;28;20458;-57
2023/03/12 06:26:45;;;;;;;7.30;3.97;;;4.60;99.90;;;;;;5117336;28;20954;-57
2023/03/12 06:29:12;;;;;;;10.07;3.90;;;4.70;99.90;;;;;;5117499;28;20454;-58
2023/03/12 06:31:40;;;;;;;7.03;4.57;;;4.70;99.90;;;;;;5117475;28;20442;-58
2023/03/12 06:34:09;;;;;;;7.80;4.40;;;4.70;99.90;;;;;;5117668;28;20549;-58
2023/03/12 06:36:35;;;;;;;10.07;4.60;;;4.70;99.90;;;;;;5117358;28;20451;-57
2023/03/12 06:39:05;;;;;;;8.90;4.73;;;4.80;99.90;;;;;;5117195;28;20455;-58
2023/03/12 06:41:32;;;;;;;4.87;3.20;;;4.80;99.90;;;;;;5117178;28;21029;-58
2023/03/12 06:44:02;;;;;;;8.13;4.23;;;4.80;99.90;;;;;;5117541;28;20446;-58
2023/03/12 06:46:29;;;;;;;6.00;4.07;;;4.90;99.90;;;;;;5117381;28;20438;-58
2023/03/12 06:48:56;;;;;;;4.30;3.10;;;5.00;99.90;;;;;;5117238;28;20443;-58
2023/03/12 06:51:22;;;;;;;10.00;3.20;;;5.00;99.90;;;;;;5116848;28;21016;-57
2023/03/12 06:53:49;;;;;;;7.50;3.37;;;5.00;99.90;;;;;;5116962;28;20493;-58
2023/03/12 06:56:16;;;;;;;11.73;3.70;;;5.00;99.90;;;;;;5117028;28;20447;-57
2023/03/12 06:58:43;;;;;;;4.70;3.10;;;5.10;99.90;;;;;;5116591;28;20952;-57
2023/03/12 07:01:11;;;;;;;5.40;3.60;;;5.10;99.90;;;;;;5116881;28;20479;-57
2023/03/12 07:03:38;;;;;;;6.87;2.53;;;5.10;99.90;;;;;;5116787;28;20481;-57
2023/03/12 07:06:12;;;;;;;4.23;3.13;;;5.10;99.90;;;;;;5116911;28;20446;-58
2023/03/12 07:08:38;;;;;;;6.73;3.00;;;5.00;99.90;;;;;;5116905;28;20438;-58
2023/03/12 07:11:05;;;;;;;11.17;3.33;;;5.00;99.90;;;;;;5117215;28;20442;-58
2023/03/12 07:13:32;;;;;;;2.67;2.47;;;5.00;99.90;;;;;;5116241;28;21006;-58
2023/03/12 07:15:58;;;;;;;9.17;3.30;;;5.10;99.90;;;;;;5116248;28;20470;-58
2023/03/12 07:18:26;;;;;;;7.43;3.23;;;5.00;99.90;;;;;;5116308;28;20955;-58
2023/03/12 07:20:53;;;;;;;6.80;3.23;;;5.10;99.90;;;;;;5116401;28;20485;-58
2023/03/12 07:23:21;;;;;;;3.17;2.87;;;5.10;99.90;;;;;;5115661;28;20474;-58
2023/03/12 07:25:48;;;;;;;9.00;3.60;;;5.10;99.90;;;;;;5116422;28;20451;-58
2023/03/12 07:28:16;;;;;;;4.37;3.50;;;5.20;99.90;;;;;;5116397;28;20439;-58
2023/03/12 07:30:48;;;;;;;4.97;3.43;;;5.30;99.90;;;;;;5116393;28;20450;-58
2023/03/12 07:33:16;;;;;;;4.17;3.60;;;5.30;99.90;;;;;;5116056;28;20983;-58
2023/03/12 07:35:46;;;;;;;4.30;3.37;;;5.30;99.90;;;;;;5116316;28;20496;-57
2023/03/12 07:38:13;;;;;;;7.90;3.97;;;5.40;99.90;;;;;;5116128;28;20481;-58
2023/03/12 07:40:39;;;;;;;10.33;4.37;;;5.30;99.90;;;;;;5115757;28;20880;-58
2023/03/12 07:43:10;;;;;;;7.73;3.90;;;5.30;99.90;;;;;;5116044;28;20497;-58
2023/03/12 07:45:36;;;;;;;6.00;4.03;;;5.40;99.90;;;;;;5116214;28;20431;-58
2023/03/12 07:48:03;;;;;;;6.67;4.03;;;5.40;99.90;;;;;;5116179;28;20454;-58
2023/03/12 07:50:30;;;;;;;5.43;4.60;;;5.40;99.90;;;;;;5116063;28;20809;-58
2023/03/12 07:52:58;;;;;;;8.77;4.17;;;5.50;99.90;;;;;;5116392;28;20536;-58
2023/03/12 07:55:25;;;;;;;5.53;4.30;;;5.50;99.90;;;;;;5115948;28;20443;-58
2023/03/12 07:57:52;;;;;;;6.97;3.60;;;5.50;99.90;;;;;;5115512;28;20983;-58
2023/03/12 08:00:19;;;;;;;4.57;3.30;;;5.50;99.90;;;;;;5115880;28;20479;-58
2023/03/12 08:02:46;;;;;;;8.80;3.77;;;5.50;99.90;;;;;;5115502;28;20466;-58
2023/03/12 08:05:12;;;;;;;4.23;3.07;;;5.50;99.90;;;;;;5115337;28;20956;-58
2023/03/12 08:07:39;;;;;;;4.50;3.83;;;5.60;99.90;;;;;;5115617;28;20799;-57
2023/03/12 08:10:10;;;;;;;4.37;3.97;;;5.60;99.90;;;;;;5115621;28;20474;-57
2023/03/12 08:12:37;;;;;;;5.70;4.73;;;5.70;99.90;;;;;;5115545;28;20463;-57
2023/03/12 08:15:04;;;;;;;5.77;4.57;;;5.70;99.90;;;;;;5115499;28;20471;-57
2023/03/12 08:17:31;;;;;;;4.37;3.97;;;5.70;99.90;;;;;;5115399;28;20442;-57
2023/03/12 08:19:57;;;;;;;5.47;4.00;;;5.80;99.90;;;;;;5115475;28;20443;-56
2023/03/12 08:22:24;;;;;;;6.67;4.40;;;5.90;99.90;;;;;;5115199;28;20493;-56
2023/03/12 08:24:51;;;;;;;4.40;3.93;;;5.90;99.90;;;;;;5114932;28;20940;-56
2023/03/12 08:27:19;;;;;;;5.00;4.60;;;6.00;99.90;;;;;;5115182;28;20862;-56
2023/03/12 08:29:45;;;;;;;12.97;4.77;;;6.10;99.90;;;;;;5115253;28;20451;-56
2023/03/12 08:32:12;;;;;;;5.30;4.10;;;6.10;99.90;;;;;;5115235;28;20463;-56
2023/03/12 08:34:39;;;;;;;9.30;4.70;;;6.20;99.90;;;;;;5114862;28;21024;-57
2023/03/12 08:37:06;;;;;;;6.70;3.57;;;6.30;99.90;;;;;;5115117;28;20454;-56
2023/03/12 08:39:33;;;;;;;7.93;4.37;;;6.30;99.90;;;;;;5114792;28;20888;-57
2023/03/12 08:42:00;;;;;;;5.00;4.40;;;6.40;99.90;;;;;;5115001;28;20859;-57
2023/03/12 08:44:28;;;;;;;7.90;3.93;;;6.40;99.90;;;;;;5116050;28;20455;-57
2023/03/12 08:46:55;;;;;;;8.70;3.93;;;6.50;99.90;;;;;;5116488;28;20447;-56
2023/03/12 08:49:22;;;;;;;5.27;4.10;;;6.50;99.90;;;;;;5115789;28;20443;-56
2023/03/12 08:51:50;;;;;;;5.10;4.60;;;6.60;99.90;;;;;;5115246;28;20439;-57
2023/03/12 08:54:17;;;;;;;9.53;5.27;;;6.60;99.90;;;;;;5115112;28;20446;-57
2023/03/12 08:56:45;;;;;;;7.13;4.27;;;6.70;99.90;;;;;;5114860;28;20451;-57
2023/03/12 08:59:13;;;;;;;8.57;4.97;;;6.70;99.90;;;;;;5114893;28;20455;-57
2023/03/12 09:01:41;;;;;;;5.23;4.73;;;6.60;99.90;;;;;;5114384;28;20991;-57
2023/03/12 09:04:08;;;;;;;6.00;4.70;;;6.60;99.90;;;;;;5114866;28;20498;-57
2023/03/12 09:06:35;;;;;;;7.80;4.90;;;6.70;99.90;;;;;;5114364;28;20963;-57
2023/03/12 09:09:03;;;;;;;5.77;4.53;;;6.70;99.90;;;;;;5114546;28;20484;-57
2023/03/12 09:11:31;;;;;;;7.87;5.10;;;6.70;99.90;;;;;;5114569;28;20446;-56
2023/03/12 09:13:57;;;;;;;7.20;4.87;;;6.80;99.90;;;;;;5114376;28;20469;-56
2023/03/12 09:16:24;;;;;;;6.17;5.37;;;6.70;99.90;;;;;;5114498;28;20450;-57
2023/03/12 09:18:52;;;;;;;5.63;4.70;;;6.80;99.90;;;;;;5114100;28;20817;-57
2023/03/12 09:21:19;;;;;;;5.23;4.73;;;6.80;99.90;;;;;;5114217;28;20474;-57
2023/03/12 09:23:46;;;;;;;5.23;4.47;;;6.90;99.90;;;;;;5114189;28;20467;-57
2023/03/12 09:26:13;;;;;;;6.13;5.10;;;7.00;99.90;;;;;;5114283;28;20478;-57
2023/03/12 09:28:41;;;;;;;7.00;6.40;;;7.00;99.90;;;;;;5114253;28;20821;-57
2023/03/12 09:31:08;;;;;;;5.77;5.10;;;7.10;99.90;;;;;;5114164;28;20486;-57
2023/03/12 09:33:34;;;;;;;8.17;7.37;;;7.10;99.90;;;;;;5114025;28;20516;-57
2023/03/12 09:36:03;;;;;;;5.10;4.60;;;7.20;99.90;;;;;;5114123;28;20485;-57
2023/03/12 09:38:30;;;;;;;6.50;5.70;;;7.20;99.90;;;;;;5113751;28;20829;-57
2023/03/12 09:40:58;;;;;;;4.80;4.30;;;7.20;99.90;;;;;;5113976;28;20466;-57
2023/03/12 09:43:29;;;;;;;8.10;4.70;;;7.20;99.90;;;;;;5113977;28;20494;-57
2023/03/12 09:45:56;;;;;;;4.93;4.43;;;7.20;99.90;;;;;;5113529;28;20470;-57
2023/03/12 09:48:32;;;;;;;5.43;4.87;;;7.30;99.90;;;;;;5114036;28;20450;-57
2023/03/12 09:51:03;;;;;;;5.80;4.80;;;7.30;99.90;;;;;;5114063;28;20506;-57
2023/03/12 09:53:39;;;;;;;6.77;5.80;;;7.30;99.90;;;;;;5114760;28;20458;-57
2023/03/12 09:56:12;;;;;;;6.53;5.90;;;7.40;99.90;;;;;;5113843;28;20526;-56
2023/03/12 09:58:41;;;;;;;7.03;5.50;;;7.50;99.90;;;;;;5113873;28;20444;-57
2023/03/12 10:01:21;;;;;;;4.23;3.90;;;7.60;99.90;;;;;;5113878;28;20453;-57
2023/03/12 10:04:01;;;;;;;5.30;4.57;;;7.70;99.90;;;;;;5113916;28;20462;-57
2023/03/12 10:06:35;;;;;;;3.77;3.50;;;7.80;99.90;;;;;;5113653;28;20924;-57
2023/03/12 10:09:12;;;;;;;4.73;4.27;;;7.80;99.90;;;;;;5113658;28;20791;-57
2023/03/12 10:11:46;;;;;;;5.00;4.60;;;8.00;99.90;;;;;;5114315;28;20484;-57
2023/03/12 10:14:22;;;;;;;5.20;4.70;;;8.10;99.90;;;;;;5113722;28;20426;-57
2023/03/12 10:16:57;;;;;;;5.43;4.93;;;8.20;99.90;;;;;;5113342;28;20949;-57
2023/03/12 10:19:37;;;;;;;5.50;4.90;;;8.30;99.90;;;;;;5113637;28;20431;-58
2023/03/12 10:22:14;;;;;;;11.30;6.40;;;8.40;99.90;;;;;;5113477;28;20486;-57
2023/03/12 10:24:52;;;;;;;6.93;6.23;;;8.40;99.90;;;;;;5113491;28;20795;-58
2023/03/12 10:27:31;;;;;;;10.43;6.80;;;8.40;99.90;;;;;;5113636;28;20810;-58
2023/03/12 10:29:58;;;;;;;9.30;7.63;;;8.50;99.90;;;;;;5113573;28;20790;-57
2023/03/12 10:32:29;;;;;;;13.50;7.87;;;8.60;99.90;;;;;;5113480;28;20466;-58
2023/03/12 10:34:59;;;;;;;13.33;9.87;;;8.60;99.90;;;;;;5113407;28;20434;-58
2023/03/12 10:37:29;;;;;;;15.30;9.37;;;8.60;99.90;;;;;;5113299;28;20458;-57
2023/03/12 10:39:59;;;;;;;13.33;9.23;;;8.70;99.90;;;;;;5113428;28;20434;-57
2023/03/12 10:42:28;;;;;;;11.17;8.93;;;8.80;99.90;;;;;;5113002;28;20491;-57
2023/03/12 10:44:59;;;;;;;12.83;9.30;;;8.90;99.90;;;;;;5113495;28;20442;-57
2023/03/12 10:47:33;;;;;;;17.83;10.63;;;9.00;99.90;;;;;;5113514;28;20518;-57
2023/03/12 10:50:14;;;;;;;17.83;10.53;;;9.00;99.90;;;;;;5113358;28;20510;-57
2023/03/12 10:52:43;;;;;;;17.80;10.13;;;9.00;99.90;;;;;;5113300;28;20550;-56
2023/03/12 10:55:21;;;;;;;20.83;10.80;;;9.10;99.90;;;;;;5113282;28;20446;-56
2023/03/12 10:57:49;;;;;;;18.23;10.13;;;9.30;99.90;;;;;;5113030;28;20936;-56
2023/03/12 11:00:20;;;;;;;24.87;12.47;;;9.30;99.90;;;;;;5117491;28;20454;-56
2023/03/12 11:02:55;;;;;;;23.80;12.37;;;9.40;99.90;;;;;;5117627;28;20482;-56
2023/03/12 11:05:24;;;;;;;16.90;11.63;;;9.50;99.90;;;;;;5116728;28;20907;-57
2023/03/12 11:07:52;;;;;;;19.93;11.67;;;9.60;99.90;;;;;;5116956;28;20454;-57
2023/03/12 11:10:24;;;;;;;22.50;12.53;;;9.70;99.90;;;;;;5116790;28;20914;-57
2023/03/12 11:13:00;;;;;;;20.90;11.73;;;9.70;99.90;;;;;;5116779;28;20458;-57
2023/03/12 11:15:31;;;;;;;28.03;12.50;;;9.80;99.90;;;;;;5116771;28;20431;-57
2023/03/12 11:18:30;;;;;;;25.17;13.43;;;9.80;99.90;;;;;;5116924;28;20435;-57
2023/03/12 11:21:12;;;;;;;28.30;13.03;;;9.80;99.90;;;;;;5116484;28;20916;-57
2023/03/12 11:23:43;;;;;;;29.43;13.23;;;9.90;99.90;;;;;;5116785;28;20489;-57
2023/03/12 11:26:14;;;;;;;25.70;13.73;;;10.00;99.90;;;;;;5116783;28;20484;-57
2023/03/12 11:28:44;;;;;;;25.57;13.10;;;10.00;99.90;;;;;;5117178;28;20459;-57
2023/03/12 11:31:20;;;;;;;28.77;13.20;;;10.10;99.90;;;;;;5117039;28;20480;-58
2023/03/12 11:33:47;;;;;;;24.70;12.43;;;10.20;99.90;;;;;;5117534;28;20462;-58
2023/03/12 11:36:28;;;;;;;25.33;11.13;;;10.30;99.90;;;;;;5118683;28;20439;-57
2023/03/12 11:39:03;;;;;;;21.40;11.30;;;10.30;99.90;;;;;;5116984;28;20446;-58
2023/03/12 11:41:43;;;;;;;23.50;11.13;;;10.50;99.90;;;;;;5117106;28;20514;-58
2023/03/12 11:44:27;;;;;;;25.30;11.60;;;10.60;99.90;;;;;;5116761;28;20438;-58
2023/03/12 11:47:09;;;;;;;32.63;9.63;;;10.70;99.90;;;;;;5117054;28;20932;-58
2023/03/12 11:49:48;;;;;;;24.13;9.63;;;10.80;99.90;;;;;;5116743;28;20447;-58
2023/03/12 11:52:21;;;;;;;21.83;9.50;;;11.00;99.90;;;;;;5116441;28;20462;-58
2023/03/12 11:55:15;;;;;;;30.20;9.90;;;11.20;99.90;;;;;;5116582;28;20438;-58
2023/03/12 11:57:55;;;;;;;29.20;9.53;;;11.20;99.90;;;;;;5115855;28;20900;-58
2023/03/12 12:00:28;;;;;;;23.40;9.13;;;11.20;99.90;;;;;;5116318;28;20434;-58
2023/03/12 12:03:36;;;;;;;24.30;9.57;;;11.20;99.90;;;;;;5115803;28;20482;-57
2023/03/12 12:06:08;;;;;;;29.87;9.63;;;11.30;99.90;;;;;;5110518;28;20951;-58
2023/03/12 12:09:02;;;;;;;22.23;8.50;;;11.30;99.90;;;;;;5115926;28;20430;-58
2023/03/12 12:11:44;;;;;;;26.33;8.70;;;11.40;99.90;;;;;;5116034;28;20419;-58
2023/03/12 12:14:17;;;;;;;41.47;8.70;;;11.40;99.90;;;;;;5116462;28;20435;-58
2023/03/12 12:16:54;;;;;;;23.10;7.97;;;11.40;99.90;;;;;;5120291;28;20423;-58
2023/03/12 12:19:33;;;;;;;22.87;8.50;;;11.60;99.90;;;;;;5118428;28;20430;-58
2023/03/12 12:22:13;;;;;;;28.00;9.00;;;11.60;99.90;;;;;;5116151;28;20531;-58
2023/03/12 12:25:01;;;;;;;22.97;8.00;;;11.70;99.90;;;;;;5115147;28;20457;-58
2023/03/12 12:27:32;;;;;;;24.20;7.77;;;11.80;99.90;;;;;;5115831;28;20442;-57
2023/03/12 12:30:10;;;;;;;26.47;8.20;;;11.80;99.90;;;;;;5115280;28;20428;-58
2023/03/12 12:32:52;;;;;;;21.87;6.83;;;12.00;99.90;;;;;;5115114;28;20523;-58
2023/03/12 12:35:27;;;;;;;23.27;7.50;;;12.30;99.90;;;;;;5115185;28;20423;-58
2023/03/12 12:37:59;;;;;;;20.00;6.27;;;12.80;99.90;;;;;;5114984;28;20466;-58
2023/03/12 12:40:30;;;;;;;18.37;5.50;;;13.10;99.90;;;;;;5115044;28;20484;-58
2023/03/12 12:43:06;;;;;;;24.40;6.43;;;13.20;99.90;;;;;;5115009;28;20487;-58
2023/03/12 12:45:33;;;;;;;19.80;6.30;;;13.10;99.90;;;;;;5114955;28;20434;-58
2023/03/12 12:48:04;;;;;;;19.23;6.37;;;13.00;99.90;;;;;;5114936;28;20861;-58
2023/03/12 12:50:34;;;;;;;25.83;7.03;;;12.90;99.90;;;;;;5114969;28;20427;-58
2023/03/12 12:53:10;;;;;;;26.37;7.30;;;12.80;99.90;;;;;;5114701;28;20466;-58
2023/03/12 12:55:46;;;;;;;30.70;7.03;;;12.70;99.90;;;;;;5114989;28;20430;-57
2023/03/12 12:58:20;;;;;;;18.93;5.13;;;12.70;99.90;;;;;;5114443;28;20912;-58
2023/03/12 13:00:49;;;;;;;16.67;5.37;;;12.70;99.90;;;;;;5114615;28;20429;-58
2023/03/12 13:03:18;;;;;;;14.93;4.63;;;12.60;99.90;;;;;;5114512;28;20483;-58